createdAt,value
2019-01-13T00:03:55.529Z,16.00
2019-01-13T00:14:01.171Z,16.33
2019-01-13T00:24:06.703Z,15.67
2019-01-13T00:34:12.095Z,15.07
2019-01-13T00:44:17.425Z,16.83
2019-01-13T00:54:22.744Z,15.53
2019-01-13T01:04:28.092Z,13.83
2019-01-13T01:14:33.387Z,14.37
2019-01-13T01:24:39.673Z,14.77
2019-01-13T01:34:45.343Z,13.63
2019-01-13T01:44:50.701Z,14.27
2019-01-13T01:54:56.147Z,13.47
2019-01-13T02:05:01.907Z,12.50
2019-01-13T02:15:09.452Z,11.37
2019-01-13T02:25:16.591Z,11.23
2019-01-13T02:35:21.979Z,12.40
2019-01-13T02:45:30.473Z,11.10
2019-01-13T02:55:35.952Z,9.53
2019-01-13T03:05:41.282Z,8.13
2019-01-13T03:15:46.657Z,8.33
2019-01-13T03:25:51.981Z,7.13
2019-01-13T03:35:57.316Z,7.40
2019-01-13T03:46:02.699Z,9.00
2019-01-13T03:56:08.010Z,8.50
2019-01-13T04:06:13.522Z,7.90
2019-01-13T04:16:19.196Z,8.40
2019-01-13T04:26:24.618Z,9.03
2019-01-13T04:36:30.029Z,8.77
2019-01-13T04:46:35.394Z,8.97
2019-01-13T04:56:40.808Z,9.03
2019-01-13T05:06:46.152Z,9.13
2019-01-13T05:16:51.583Z,9.67
2019-01-13T05:26:57.066Z,9.53
2019-01-13T05:37:02.377Z,8.90
2019-01-13T05:47:07.750Z,9.60
2019-01-13T05:57:13.534Z,13.27
2019-01-13T06:07:18.928Z,13.50
2019-01-13T06:17:24.331Z,14.83
2019-01-13T06:27:29.796Z,14.00
2019-01-13T06:37:35.153Z,14.47
2019-01-13T06:47:40.589Z,13.33
2019-01-13T06:57:45.965Z,11.77
2019-01-13T07:07:51.415Z,12.40
2019-01-13T07:17:56.819Z,10.87
2019-01-13T07:28:02.174Z,10.90
2019-01-13T07:38:07.579Z,10.47
2019-01-13T07:48:12.945Z,10.00
2019-01-13T07:58:18.322Z,11.03
2019-01-13T08:08:23.644Z,10.60
2019-01-13T08:18:29.045Z,10.90
2019-01-13T08:28:34.503Z,11.37
2019-01-13T08:38:39.793Z,11.83
2019-01-13T08:48:45.129Z,10.17
2019-01-13T08:58:50.416Z,10.10
2019-01-13T09:08:55.979Z,11.07
2019-01-13T09:19:01.653Z,10.53
2019-01-13T09:29:07.058Z,10.03
2019-01-13T09:39:12.479Z,11.10
2019-01-13T09:49:17.882Z,10.83
2019-01-13T09:59:23.438Z,12.37
2019-01-13T10:09:28.811Z,11.50
2019-01-13T10:19:34.188Z,12.50
2019-01-13T10:29:39.576Z,13.63
2019-01-13T10:39:44.962Z,14.13
2019-01-13T10:49:50.276Z,13.50
2019-01-13T10:59:55.639Z,14.33
2019-01-13T11:10:01.058Z,13.00
2019-01-13T11:20:11.075Z,12.63
2019-01-13T11:30:18.796Z,13.10
2019-01-13T11:40:29.452Z,14.40
2019-01-13T11:50:34.940Z,11.70
2019-01-13T12:00:47.728Z,12.37
2019-01-13T12:10:53.155Z,13.67
2019-01-13T12:20:58.751Z,13.37
2019-01-13T12:31:04.148Z,13.40
2019-01-13T12:41:09.609Z,14.27
2019-01-13T12:51:15.134Z,13.73
2019-01-13T13:01:20.596Z,13.33
2019-01-13T13:11:26.253Z,11.73
2019-01-13T13:21:31.652Z,12.13
2019-01-13T13:31:37.099Z,10.47
2019-01-13T13:41:42.674Z,12.93
2019-01-13T13:51:48.269Z,10.60
2019-01-13T14:01:53.865Z,13.90
2019-01-13T14:11:59.465Z,11.13
2019-01-13T14:22:05.378Z,10.33
2019-01-13T14:32:10.670Z,11.00
2019-01-13T14:42:16.089Z,11.90
2019-01-13T14:52:21.457Z,11.80
2019-01-13T15:02:26.919Z,11.57
2019-01-13T15:12:32.304Z,12.17
2019-01-13T15:22:37.686Z,13.73
2019-01-13T15:32:43.104Z,11.37
2019-01-13T15:42:48.566Z,13.20
2019-01-13T15:52:54.046Z,10.73
2019-01-13T16:02:59.439Z,10.10
2019-01-13T16:13:06.008Z,10.27
2019-01-13T16:23:11.578Z,10.13
2019-01-13T16:33:17.138Z,9.33
2019-01-13T16:43:23.914Z,11.67
2019-01-13T16:53:29.474Z,14.40
2019-01-13T17:03:36.035Z,11.00
2019-01-13T17:13:41.548Z,9.40
2019-01-13T17:23:47.048Z,9.07
2019-01-13T17:33:52.724Z,9.33
2019-01-13T17:43:58.190Z,9.03
2019-01-13T17:54:03.883Z,8.87
2019-01-13T18:04:09.375Z,7.67
2019-01-13T18:14:15.046Z,8.47
2019-01-13T18:24:20.604Z,8.20
2019-01-13T18:34:26.008Z,8.97
2019-01-13T18:44:31.458Z,8.77
2019-01-13T18:54:36.839Z,8.13
2019-01-13T19:04:42.324Z,8.07
2019-01-13T19:14:51.771Z,7.77
2019-01-13T19:24:59.974Z,8.40
2019-01-13T19:35:06.847Z,9.57
2019-01-13T19:45:13.749Z,9.50
2019-01-13T19:55:19.285Z,8.93
2019-01-13T20:05:24.739Z,10.20
2019-01-13T20:15:30.084Z,8.70
2019-01-13T20:25:35.585Z,8.87
2019-01-13T20:35:41.066Z,9.00
2019-01-13T20:45:46.571Z,10.60
2019-01-13T20:55:51.885Z,8.33
2019-01-13T21:05:57.250Z,9.20
2019-01-13T21:16:02.591Z,8.03
2019-01-13T21:26:08.249Z,11.27
2019-01-13T21:36:13.762Z,7.47
2019-01-13T21:46:19.331Z,8.67
2019-01-13T21:56:24.721Z,7.73
2019-01-13T22:06:31.028Z,7.90
2019-01-13T22:16:36.662Z,7.93
2019-01-13T22:26:42.026Z,7.77
2019-01-13T22:36:47.515Z,7.57
2019-01-13T22:46:53.088Z,7.20
2019-01-13T22:56:58.514Z,8.00
2019-01-13T23:07:04.080Z,8.10
2019-01-13T23:17:09.516Z,7.70
2019-01-13T23:27:14.880Z,8.00
2019-01-13T23:37:20.286Z,8.33
2019-01-13T23:47:25.774Z,8.17
2019-01-13T23:57:31.114Z,7.60
